sensor_id;sensor_type;location;lat;lon;timestamp;P1;durP1;ratioP1;P2;durP2;ratioP2
59024;SDS011;44806;48.008;13.666;2023-04-29T00:01:47;15.95;;;12.10;;
59024;SDS011;44806;48.008;13.666;2023-04-29T00:04:14;26.30;;;13.77;;
59024;SDS011;44806;48.008;13.666;2023-04-29T00:06:43;19.67;;;15.18;;
59024;SDS011;44806;48.008;13.666;2023-04-29T00:09:11;20.98;;;14.80;;
59024;SDS011;44806;48.008;13.666;2023-04-29T00:11:38;27.80;;;16.63;;
59024;SDS011;44806;48.008;13.666;2023-04-29T00:14:05;14.32;;;10.93;;
59024;SDS011;44806;48.008;13.666;2023-04-29T00:16:32;10.57;;;8.85;;
59024;SDS011;44806;48.008;13.666;2023-04-29T00:18:59;29.63;;;13.52;;
59024;SDS011;44806;48.008;13.666;2023-04-29T00:21:26;24.25;;;14.57;;
59024;SDS011;44806;48.008;13.666;2023-04-29T00:23:54;24.80;;;13.55;;
59024;SDS011;44806;48.008;13.666;2023-04-29T00:26:22;31.38;;;16.58;;
59024;SDS011;44806;48.008;13.666;2023-04-29T00:28:49;16.45;;;10.88;;
59024;SDS011;44806;48.008;13.666;2023-04-29T00:31:16;13.77;;;9.30;;
59024;SDS011;44806;48.008;13.666;2023-04-29T00:33:43;11.07;;;8.88;;
59024;SDS011;44806;48.008;13.666;2023-04-29T00:36:10;17.80;;;11.80;;
59024;SDS011;44806;48.008;13.666;2023-04-29T00:38:37;25.13;;;15.18;;
59024;SDS011;44806;48.008;13.666;2023-04-29T00:41:06;12.27;;;11.23;;
59024;SDS011;44806;48.008;13.666;2023-04-29T00:43:35;23.80;;;12.32;;
59024;SDS011;44806;48.008;13.666;2023-04-29T00:46:02;12.70;;;11.40;;
59024;SDS011;44806;48.008;13.666;2023-04-29T00:48:29;34.28;;;16.85;;
59024;SDS011;44806;48.008;13.666;2023-04-29T00:50:57;13.20;;;12.02;;
59024;SDS011;44806;48.008;13.666;2023-04-29T00:53:24;37.17;;;18.00;;
59024;SDS011;44806;48.008;13.666;2023-04-29T00:55:51;12.85;;;11.60;;
59024;SDS011;44806;48.008;13.666;2023-04-29T00:58:20;12.38;;;11.18;;
59024;SDS011;44806;48.008;13.666;2023-04-29T01:00:48;21.25;;;13.80;;
59024;SDS011;44806;48.008;13.666;2023-04-29T01:03:16;27.42;;;14.90;;
59024;SDS011;44806;48.008;13.666;2023-04-29T01:05:45;26.90;;;17.38;;
59024;SDS011;44806;48.008;13.666;2023-04-29T01:08:24;36.42;;;22.13;;
59024;SDS011;44806;48.008;13.666;2023-04-29T01:11:00;19.75;;;11.30;;
59024;SDS011;44806;48.008;13.666;2023-04-29T01:13:36;11.80;;;8.73;;
59024;SDS011;44806;48.008;13.666;2023-04-29T01:16:10;33.00;;;16.15;;
59024;SDS011;44806;48.008;13.666;2023-04-29T01:18:40;10.18;;;8.30;;
59024;SDS011;44806;48.008;13.666;2023-04-29T01:21:11;10.25;;;7.50;;
59024;SDS011;44806;48.008;13.666;2023-04-29T01:23:39;28.77;;;15.00;;
59024;SDS011;44806;48.008;13.666;2023-04-29T01:26:08;21.35;;;13.70;;
59024;SDS011;44806;48.008;13.666;2023-04-29T01:28:40;24.77;;;15.82;;
59024;SDS011;44806;48.008;13.666;2023-04-29T01:31:14;19.77;;;12.45;;
59024;SDS011;44806;48.008;13.666;2023-04-29T01:33:47;19.45;;;10.18;;
59024;SDS011;44806;48.008;13.666;2023-04-29T01:36:21;14.40;;;8.30;;
59024;SDS011;44806;48.008;13.666;2023-04-29T01:39:02;19.08;;;12.13;;
59024;SDS011;44806;48.008;13.666;2023-04-29T01:41:39;26.58;;;15.38;;
59024;SDS011;44806;48.008;13.666;2023-04-29T01:44:12;10.73;;;8.65;;
59024;SDS011;44806;48.008;13.666;2023-04-29T01:46:42;27.67;;;14.90;;
59024;SDS011;44806;48.008;13.666;2023-04-29T01:49:14;26.50;;;16.50;;
59024;SDS011;44806;48.008;13.666;2023-04-29T01:51:41;33.83;;;16.90;;
59024;SDS011;44806;48.008;13.666;2023-04-29T01:54:12;25.60;;;12.50;;
59024;SDS011;44806;48.008;13.666;2023-04-29T01:56:39;18.10;;;14.38;;
59024;SDS011;44806;48.008;13.666;2023-04-29T01:59:06;28.85;;;16.00;;
59024;SDS011;44806;48.008;13.666;2023-04-29T02:01:33;30.30;;;16.50;;
59024;SDS011;44806;48.008;13.666;2023-04-29T02:04:01;14.70;;;10.98;;
59024;SDS011;44806;48.008;13.666;2023-04-29T02:06:28;26.63;;;16.08;;
59024;SDS011;44806;48.008;13.666;2023-04-29T02:08:56;10.15;;;7.88;;
59024;SDS011;44806;48.008;13.666;2023-04-29T02:11:24;26.27;;;13.95;;
59024;SDS011;44806;48.008;13.666;2023-04-29T02:13:52;18.65;;;11.85;;
59024;SDS011;44806;48.008;13.666;2023-04-29T02:16:20;9.73;;;8.85;;
59024;SDS011;44806;48.008;13.666;2023-04-29T02:18:47;17.67;;;13.00;;
59024;SDS011;44806;48.008;13.666;2023-04-29T02:21:15;26.05;;;14.05;;
59024;SDS011;44806;48.008;13.666;2023-04-29T02:23:42;19.98;;;13.77;;
59024;SDS011;44806;48.008;13.666;2023-04-29T02:26:12;25.83;;;15.85;;
59024;SDS011;44806;48.008;13.666;2023-04-29T02:28:41;10.70;;;9.32;;
59024;SDS011;44806;48.008;13.666;2023-04-29T02:31:08;22.17;;;13.45;;
59024;SDS011;44806;48.008;13.666;2023-04-29T02:33:35;17.40;;;10.05;;
59024;SDS011;44806;48.008;13.666;2023-04-29T02:36:02;14.00;;;9.13;;
59024;SDS011;44806;48.008;13.666;2023-04-29T02:38:29;27.20;;;14.90;;
59024;SDS011;44806;48.008;13.666;2023-04-29T02:40:56;25.33;;;14.00;;
59024;SDS011;44806;48.008;13.666;2023-04-29T02:43:24;34.60;;;16.58;;
59024;SDS011;44806;48.008;13.666;2023-04-29T02:45:52;24.00;;;14.80;;
59024;SDS011;44806;48.008;13.666;2023-04-29T02:48:19;12.20;;;8.00;;
59024;SDS011;44806;48.008;13.666;2023-04-29T02:50:46;15.00;;;10.88;;
59024;SDS011;44806;48.008;13.666;2023-04-29T02:53:13;21.23;;;15.73;;
59024;SDS011;44806;48.008;13.666;2023-04-29T02:55:40;40.30;;;18.17;;
59024;SDS011;44806;48.008;13.666;2023-04-29T02:58:08;21.25;;;14.00;;
59024;SDS011;44806;48.008;13.666;2023-04-29T03:00:34;12.25;;;8.43;;
59024;SDS011;44806;48.008;13.666;2023-04-29T03:03:03;25.85;;;12.35;;
59024;SDS011;44806;48.008;13.666;2023-04-29T03:05:30;29.48;;;17.92;;
59024;SDS011;44806;48.008;13.666;2023-04-29T03:07:57;12.52;;;11.20;;
59024;SDS011;44806;48.008;13.666;2023-04-29T03:10:24;32.45;;;19.75;;
59024;SDS011;44806;48.008;13.666;2023-04-29T03:12:51;23.95;;;13.05;;
59024;SDS011;44806;48.008;13.666;2023-04-29T03:15:17;23.52;;;15.70;;
59024;SDS011;44806;48.008;13.666;2023-04-29T03:17:44;20.27;;;12.65;;
59024;SDS011;44806;48.008;13.666;2023-04-29T03:20:13;9.40;;;6.65;;
59024;SDS011;44806;48.008;13.666;2023-04-29T03:22:39;11.20;;;7.55;;
59024;SDS011;44806;48.008;13.666;2023-04-29T03:25:07;15.50;;;11.80;;
59024;SDS011;44806;48.008;13.666;2023-04-29T03:27:35;26.17;;;14.63;;
59024;SDS011;44806;48.008;13.666;2023-04-29T03:30:01;18.70;;;10.65;;
59024;SDS011;44806;48.008;13.666;2023-04-29T03:32:29;20.40;;;10.52;;
59024;SDS011;44806;48.008;13.666;2023-04-29T03:34:56;12.70;;;8.98;;
59024;SDS011;44806;48.008;13.666;2023-04-29T03:37:24;12.77;;;7.10;;
59024;SDS011;44806;48.008;13.666;2023-04-29T03:39:51;20.02;;;12.10;;
59024;SDS011;44806;48.008;13.666;2023-04-29T03:42:18;28.35;;;14.40;;
59024;SDS011;44806;48.008;13.666;2023-04-29T03:44:45;18.05;;;10.32;;
59024;SDS011;44806;48.008;13.666;2023-04-29T03:47:11;17.67;;;11.07;;
59024;SDS011;44806;48.008;13.666;2023-04-29T03:49:39;13.07;;;6.45;;
59024;SDS011;44806;48.008;13.666;2023-04-29T03:52:06;28.52;;;15.50;;
59024;SDS011;44806;48.008;13.666;2023-04-29T03:54:34;13.35;;;10.32;;
59024;SDS011;44806;48.008;13.666;2023-04-29T03:57:01;14.75;;;8.88;;
59024;SDS011;44806;48.008;13.666;2023-04-29T03:59:28;14.57;;;10.48;;
59024;SDS011;44806;48.008;13.666;2023-04-29T04:01:55;18.10;;;12.95;;
59024;SDS011;44806;48.008;13.666;2023-04-29T04:04:22;22.25;;;14.13;;
59024;SDS011;44806;48.008;13.666;2023-04-29T04:06:50;27.95;;;14.27;;
59024;SDS011;44806;48.008;13.666;2023-04-29T04:09:17;18.48;;;12.50;;
59024;SDS011;44806;48.008;13.666;2023-04-29T04:11:45;13.20;;;9.18;;
59024;SDS011;44806;48.008;13.666;2023-04-29T04:14:12;19.30;;;11.07;;
59024;SDS011;44806;48.008;13.666;2023-04-29T04:16:39;15.20;;;8.07;;
59024;SDS011;44806;48.008;13.666;2023-04-29T04:19:06;19.88;;;11.45;;
59024;SDS011;44806;48.008;13.666;2023-04-29T04:21:34;18.63;;;12.45;;
59024;SDS011;44806;48.008;13.666;2023-04-29T04:24:01;17.73;;;11.45;;
59024;SDS011;44806;48.008;13.666;2023-04-29T04:26:28;23.77;;;13.45;;
59024;SDS011;44806;48.008;13.666;2023-04-29T04:28:56;9.32;;;7.25;;
59024;SDS011;44806;48.008;13.666;2023-04-29T04:31:23;18.70;;;11.63;;
59024;SDS011;44806;48.008;13.666;2023-04-29T04:33:50;20.73;;;13.45;;
59024;SDS011;44806;48.008;13.666;2023-04-29T04:36:17;11.73;;;7.75;;
59024;SDS011;44806;48.008;13.666;2023-04-29T04:38:44;21.05;;;15.13;;
59024;SDS011;44806;48.008;13.666;2023-04-29T04:41:11;19.38;;;11.32;;
59024;SDS011;44806;48.008;13.666;2023-04-29T04:43:38;17.20;;;11.20;;
59024;SDS011;44806;48.008;13.666;2023-04-29T04:46:10;19.52;;;14.32;;
59024;SDS011;44806;48.008;13.666;2023-04-29T04:48:37;23.55;;;12.95;;
59024;SDS011;44806;48.008;13.666;2023-04-29T04:51:07;13.57;;;8.90;;
59024;SDS011;44806;48.008;13.666;2023-04-29T04:53:35;14.35;;;12.30;;
59024;SDS011;44806;48.008;13.666;2023-04-29T04:56:02;11.50;;;9.18;;
59024;SDS011;44806;48.008;13.666;2023-04-29T04:58:30;32.08;;;17.80;;
59024;SDS011;44806;48.008;13.666;2023-04-29T05:00:57;31.88;;;18.92;;
59024;SDS011;44806;48.008;13.666;2023-04-29T05:03:25;20.58;;;14.70;;
59024;SDS011;44806;48.008;13.666;2023-04-29T05:05:53;38.30;;;20.17;;
59024;SDS011;44806;48.008;13.666;2023-04-29T05:08:19;20.35;;;13.52;;
59024;SDS011;44806;48.008;13.666;2023-04-29T05:10:47;17.58;;;11.80;;
59024;SDS011;44806;48.008;13.666;2023-04-29T05:13:14;14.40;;;8.35;;
59024;SDS011;44806;48.008;13.666;2023-04-29T05:15:40;18.33;;;11.70;;
59024;SDS011;44806;48.008;13.666;2023-04-29T05:18:08;21.08;;;9.82;;
59024;SDS011;44806;48.008;13.666;2023-04-29T05:20:36;25.95;;;18.50;;
59024;SDS011;44806;48.008;13.666;2023-04-29T05:23:03;24.55;;;15.32;;
59024;SDS011;44806;48.008;13.666;2023-04-29T05:25:31;21.75;;;13.32;;
59024;SDS011;44806;48.008;13.666;2023-04-29T05:27:58;32.67;;;17.48;;
59024;SDS011;44806;48.008;13.666;2023-04-29T05:30:25;35.55;;;17.48;;
59024;SDS011;44806;48.008;13.666;2023-04-29T05:32:52;19.55;;;12.88;;
59024;SDS011;44806;48.008;13.666;2023-04-29T05:35:19;22.38;;;12.35;;
59024;SDS011;44806;48.008;13.666;2023-04-29T05:37:47;15.98;;;11.57;;
59024;SDS011;44806;48.008;13.666;2023-04-29T05:40:14;47.00;;;20.83;;
59024;SDS011;44806;48.008;13.666;2023-04-29T05:42:41;24.52;;;15.93;;
59024;SDS011;44806;48.008;13.666;2023-04-29T05:45:08;13.75;;;7.85;;
59024;SDS011;44806;48.008;13.666;2023-04-29T05:47:36;26.60;;;17.58;;
59024;SDS011;44806;48.008;13.666;2023-04-29T05:50:03;23.92;;;16.20;;
59024;SDS011;44806;48.008;13.666;2023-04-29T05:52:31;25.17;;;17.73;;
59024;SDS011;44806;48.008;13.666;2023-04-29T05:54:59;31.08;;;19.20;;
59024;SDS011;44806;48.008;13.666;2023-04-29T05:57:26;46.10;;;24.13;;
59024;SDS011;44806;48.008;13.666;2023-04-29T05:59:53;39.25;;;18.05;;
59024;SDS011;44806;48.008;13.666;2023-04-29T06:02:20;28.92;;;20.20;;
59024;SDS011;44806;48.008;13.666;2023-04-29T06:04:47;27.60;;;18.13;;
59024;SDS011;44806;48.008;13.666;2023-04-29T06:07:14;25.15;;;16.77;;
59024;SDS011;44806;48.008;13.666;2023-04-29T06:09:42;46.55;;;23.55;;
59024;SDS011;44806;48.008;13.666;2023-04-29T06:12:10;24.00;;;15.43;;
59024;SDS011;44806;48.008;13.666;2023-04-29T06:14:37;22.88;;;13.85;;
59024;SDS011;44806;48.008;13.666;2023-04-29T06:17:04;13.80;;;9.60;;
59024;SDS011;44806;48.008;13.666;2023-04-29T06:19:31;24.60;;;18.13;;
59024;SDS011;44806;48.008;13.666;2023-04-29T06:21:58;24.33;;;15.00;;
59024;SDS011;44806;48.008;13.666;2023-04-29T06:24:25;30.05;;;15.82;;
59024;SDS011;44806;48.008;13.666;2023-04-29T06:26:52;33.53;;;18.85;;
59024;SDS011;44806;48.008;13.666;2023-04-29T06:29:20;25.52;;;14.65;;
59024;SDS011;44806;48.008;13.666;2023-04-29T06:31:47;23.92;;;14.20;;
59024;SDS011;44806;48.008;13.666;2023-04-29T06:34:14;15.20;;;9.20;;
59024;SDS011;44806;48.008;13.666;2023-04-29T06:36:41;19.60;;;11.45;;
59024;SDS011;44806;48.008;13.666;2023-04-29T06:39:08;24.50;;;15.63;;
59024;SDS011;44806;48.008;13.666;2023-04-29T06:41:35;22.60;;;14.15;;
59024;SDS011;44806;48.008;13.666;2023-04-29T06:44:01;22.23;;;12.57;;
59024;SDS011;44806;48.008;13.666;2023-04-29T06:46:30;19.42;;;10.65;;
59024;SDS011;44806;48.008;13.666;2023-04-29T06:48:57;21.83;;;12.13;;
59024;SDS011;44806;48.008;13.666;2023-04-29T06:51:24;30.65;;;18.60;;
59024;SDS011;44806;48.008;13.666;2023-04-29T06:53:52;25.80;;;14.02;;
59024;SDS011;44806;48.008;13.666;2023-04-29T06:56:19;36.17;;;23.23;;
59024;SDS011;44806;48.008;13.666;2023-04-29T06:58:46;39.42;;;20.92;;
59024;SDS011;44806;48.008;13.666;2023-04-29T07:01:13;28.08;;;19.33;;
59024;SDS011;44806;48.008;13.666;2023-04-29T07:03:42;34.50;;;18.95;;
59024;SDS011;44806;48.008;13.666;2023-04-29T07:06:09;38.58;;;16.60;;
59024;SDS011;44806;48.008;13.666;2023-04-29T07:08:36;34.28;;;18.30;;
59024;SDS011;44806;48.008;13.666;2023-04-29T07:11:03;24.83;;;14.50;;
59024;SDS011;44806;48.008;13.666;2023-04-29T07:13:30;25.63;;;13.55;;
59024;SDS011;44806;48.008;13.666;2023-04-29T07:15:57;36.33;;;20.15;;
59024;SDS011;44806;48.008;13.666;2023-04-29T07:18:24;47.05;;;22.65;;
59024;SDS011;44806;48.008;13.666;2023-04-29T07:20:52;27.70;;;19.20;;
59024;SDS011;44806;48.008;13.666;2023-04-29T07:23:20;30.13;;;16.77;;
59024;SDS011;44806;48.008;13.666;2023-04-29T07:25:47;34.58;;;20.00;;
59024;SDS011;44806;48.008;13.666;2023-04-29T07:28:14;40.67;;;24.75;;
59024;SDS011;44806;48.008;13.666;2023-04-29T07:30:41;28.30;;;19.38;;
59024;SDS011;44806;48.008;13.666;2023-04-29T07:33:08;24.13;;;15.75;;
59024;SDS011;44806;48.008;13.666;2023-04-29T07:35:35;33.60;;;19.15;;
59024;SDS011;44806;48.008;13.666;2023-04-29T07:38:03;40.08;;;23.70;;
59024;SDS011;44806;48.008;13.666;2023-04-29T07:40:30;40.63;;;22.52;;
59024;SDS011;44806;48.008;13.666;2023-04-29T07:42:58;62.22;;;29.73;;
59024;SDS011;44806;48.008;13.666;2023-04-29T07:45:28;14.60;;;11.07;;
59024;SDS011;44806;48.008;13.666;2023-04-29T07:47:55;29.00;;;16.58;;
59024;SDS011;44806;48.008;13.666;2023-04-29T07:50:22;28.88;;;19.30;;
59024;SDS011;44806;48.008;13.666;2023-04-29T07:52:49;45.85;;;25.42;;
59024;SDS011;44806;48.008;13.666;2023-04-29T07:55:18;50.10;;;22.73;;
59024;SDS011;44806;48.008;13.666;2023-04-29T07:57:45;59.40;;;26.60;;
59024;SDS011;44806;48.008;13.666;2023-04-29T08:00:12;31.45;;;21.17;;
59024;SDS011;44806;48.008;13.666;2023-04-29T08:02:39;39.05;;;21.88;;
59024;SDS011;44806;48.008;13.666;2023-04-29T08:05:07;65.57;;;26.55;;
59024;SDS011;44806;48.008;13.666;2023-04-29T08:07:34;31.83;;;13.43;;
59024;SDS011;44806;48.008;13.666;2023-04-29T08:10:01;77.22;;;29.27;;
59024;SDS011;44806;48.008;13.666;2023-04-29T08:12:30;67.45;;;27.65;;
59024;SDS011;44806;48.008;13.666;2023-04-29T08:14:57;23.25;;;16.73;;
59024;SDS011;44806;48.008;13.666;2023-04-29T08:17:23;29.10;;;18.38;;
59024;SDS011;44806;48.008;13.666;2023-04-29T08:19:50;63.80;;;30.23;;
59024;SDS011;44806;48.008;13.666;2023-04-29T08:22:17;39.53;;;22.23;;
59024;SDS011;44806;48.008;13.666;2023-04-29T08:24:44;67.47;;;30.83;;
59024;SDS011;44806;48.008;13.666;2023-04-29T08:27:11;76.13;;;29.35;;
59024;SDS011;44806;48.008;13.666;2023-04-29T08:29:40;69.72;;;30.10;;
59024;SDS011;44806;48.008;13.666;2023-04-29T08:32:07;28.17;;;18.40;;
59024;SDS011;44806;48.008;13.666;2023-04-29T08:34:34;23.60;;;17.70;;
59024;SDS011;44806;48.008;13.666;2023-04-29T08:37:01;30.13;;;14.52;;
59024;SDS011;44806;48.008;13.666;2023-04-29T08:39:28;36.45;;;24.88;;
59024;SDS011;44806;48.008;13.666;2023-04-29T08:41:56;82.20;;;34.45;;
59024;SDS011;44806;48.008;13.666;2023-04-29T08:44:24;48.28;;;24.13;;
59024;SDS011;44806;48.008;13.666;2023-04-29T08:46:52;48.88;;;24.50;;
59024;SDS011;44806;48.008;13.666;2023-04-29T08:49:21;68.35;;;31.02;;
59024;SDS011;44806;48.008;13.666;2023-04-29T08:51:48;60.45;;;29.35;;
59024;SDS011;44806;48.008;13.666;2023-04-29T08:54:15;55.25;;;31.40;;
59024;SDS011;44806;48.008;13.666;2023-04-29T08:56:42;130.25;;;74.25;;
59024;SDS011;44806;48.008;13.666;2023-04-29T08:59:10;45.83;;;24.90;;
59024;SDS011;44806;48.008;13.666;2023-04-29T09:01:39;66.13;;;30.48;;
59024;SDS011;44806;48.008;13.666;2023-04-29T09:04:11;72.85;;;28.60;;
59024;SDS011;44806;48.008;13.666;2023-04-29T09:06:46;63.40;;;43.30;;
59024;SDS011;44806;48.008;13.666;2023-04-29T09:09:13;147.55;;;61.80;;
59024;SDS011;44806;48.008;13.666;2023-04-29T09:11:41;71.07;;;29.00;;
59024;SDS011;44806;48.008;13.666;2023-04-29T09:14:08;43.42;;;26.65;;
59024;SDS011;44806;48.008;13.666;2023-04-29T09:16:35;97.40;;;44.60;;
59024;SDS011;44806;48.008;13.666;2023-04-29T09:19:02;113.60;;;50.13;;
59024;SDS011;44806;48.008;13.666;2023-04-29T09:21:31;91.45;;;44.65;;
59024;SDS011;44806;48.008;13.666;2023-04-29T09:23:58;93.75;;;45.72;;
59024;SDS011;44806;48.008;13.666;2023-04-29T09:26:27;77.72;;;33.97;;
59024;SDS011;44806;48.008;13.666;2023-04-29T09:29:06;148.38;;;67.40;;
59024;SDS011;44806;48.008;13.666;2023-04-29T09:31:36;91.95;;;44.35;;
59024;SDS011;44806;48.008;13.666;2023-04-29T09:34:03;136.10;;;59.40;;
59024;SDS011;44806;48.008;13.666;2023-04-29T09:36:39;64.45;;;30.05;;
59024;SDS011;44806;48.008;13.666;2023-04-29T09:39:09;111.63;;;65.63;;
59024;SDS011;44806;48.008;13.666;2023-04-29T09:41:38;45.13;;;24.65;;
59024;SDS011;44806;48.008;13.666;2023-04-29T09:44:06;59.92;;;35.63;;
59024;SDS011;44806;48.008;13.666;2023-04-29T09:46:34;55.20;;;25.92;;
59024;SDS011;44806;48.008;13.666;2023-04-29T09:49:01;55.47;;;29.55;;
59024;SDS011;44806;48.008;13.666;2023-04-29T09:51:30;40.85;;;23.42;;
59024;SDS011;44806;48.008;13.666;2023-04-29T09:54:00;125.82;;;60.45;;
59024;SDS011;44806;48.008;13.666;2023-04-29T09:56:47;64.22;;;30.85;;
59024;SDS011;44806;48.008;13.666;2023-04-29T09:59:15;47.60;;;25.92;;
59024;SDS011;44806;48.008;13.666;2023-04-29T10:01:42;104.28;;;56.08;;
59024;SDS011;44806;48.008;13.666;2023-04-29T10:04:10;80.97;;;38.03;;
59024;SDS011;44806;48.008;13.666;2023-04-29T10:06:39;47.40;;;26.20;;
59024;SDS011;44806;48.008;13.666;2023-04-29T10:09:09;93.20;;;44.67;;
59024;SDS011;44806;48.008;13.666;2023-04-29T10:11:40;33.70;;;21.63;;
59024;SDS011;44806;48.008;13.666;2023-04-29T10:14:08;132.07;;;61.33;;
59024;SDS011;44806;48.008;13.666;2023-04-29T10:16:38;99.00;;;51.75;;
59024;SDS011;44806;48.008;13.666;2023-04-29T10:19:11;118.97;;;60.85;;
59024;SDS011;44806;48.008;13.666;2023-04-29T10:21:40;50.70;;;33.70;;
59024;SDS011;44806;48.008;13.666;2023-04-29T10:24:09;44.83;;;37.30;;
59024;SDS011;44806;48.008;13.666;2023-04-29T10:26:39;63.08;;;35.00;;
59024;SDS011;44806;48.008;13.666;2023-04-29T10:29:08;334.67;;;187.18;;
59024;SDS011;44806;48.008;13.666;2023-04-29T10:31:39;63.75;;;56.80;;
59024;SDS011;44806;48.008;13.666;2023-04-29T10:34:08;97.82;;;56.20;;
59024;SDS011;44806;48.008;13.666;2023-04-29T10:36:37;40.40;;;28.30;;
59024;SDS011;44806;48.008;13.666;2023-04-29T10:39:05;106.28;;;66.30;;
59024;SDS011;44806;48.008;13.666;2023-04-29T10:41:41;115.68;;;78.72;;
59024;SDS011;44806;48.008;13.666;2023-04-29T10:44:11;41.88;;;21.92;;
59024;SDS011;44806;48.008;13.666;2023-04-29T10:46:38;88.93;;;58.20;;
59024;SDS011;44806;48.008;13.666;2023-04-29T10:49:05;132.77;;;78.32;;
59024;SDS011;44806;48.008;13.666;2023-04-29T10:51:33;69.90;;;32.05;;
59024;SDS011;44806;48.008;13.666;2023-04-29T10:54:05;55.92;;;24.73;;
59024;SDS011;44806;48.008;13.666;2023-04-29T10:56:34;245.60;;;131.23;;
59024;SDS011;44806;48.008;13.666;2023-04-29T10:59:11;102.55;;;51.88;;
59024;SDS011;44806;48.008;13.666;2023-04-29T11:01:39;99.95;;;63.03;;
59024;SDS011;44806;48.008;13.666;2023-04-29T11:04:08;134.18;;;57.22;;
59024;SDS011;44806;48.008;13.666;2023-04-29T11:06:43;69.53;;;38.13;;
59024;SDS011;44806;48.008;13.666;2023-04-29T11:09:13;80.77;;;28.80;;
59024;SDS011;44806;48.008;13.666;2023-04-29T11:11:46;54.30;;;38.78;;
59024;SDS011;44806;48.008;13.666;2023-04-29T11:14:19;86.03;;;37.10;;
59024;SDS011;44806;48.008;13.666;2023-04-29T11:16:52;85.25;;;52.22;;
59024;SDS011;44806;48.008;13.666;2023-04-29T11:19:23;130.48;;;68.07;;
59024;SDS011;44806;48.008;13.666;2023-04-29T11:22:08;58.95;;;30.58;;
59024;SDS011;44806;48.008;13.666;2023-04-29T11:24:50;41.00;;;23.20;;
59024;SDS011;44806;48.008;13.666;2023-04-29T11:27:20;58.40;;;22.92;;
59024;SDS011;44806;48.008;13.666;2023-04-29T11:29:49;161.88;;;80.70;;
59024;SDS011;44806;48.008;13.666;2023-04-29T11:32:20;131.60;;;59.83;;
59024;SDS011;44806;48.008;13.666;2023-04-29T11:34:47;90.38;;;56.92;;
59024;SDS011;44806;48.008;13.666;2023-04-29T11:37:18;124.70;;;58.50;;
59024;SDS011;44806;48.008;13.666;2023-04-29T11:39:47;62.42;;;27.50;;
59024;SDS011;44806;48.008;13.666;2023-04-29T11:42:19;89.82;;;49.97;;
59024;SDS011;44806;48.008;13.666;2023-04-29T11:44:49;163.18;;;81.95;;
59024;SDS011;44806;48.008;13.666;2023-04-29T11:47:18;118.38;;;54.25;;
59024;SDS011;44806;48.008;13.666;2023-04-29T11:49:45;76.88;;;46.58;;
59024;SDS011;44806;48.008;13.666;2023-04-29T11:52:12;107.18;;;58.08;;
59024;SDS011;44806;48.008;13.666;2023-04-29T11:54:40;134.40;;;66.03;;
59024;SDS011;44806;48.008;13.666;2023-04-29T11:57:09;82.93;;;48.25;;
59024;SDS011;44806;48.008;13.666;2023-04-29T11:59:38;112.95;;;56.60;;
59024;SDS011;44806;48.008;13.666;2023-04-29T12:02:10;141.63;;;79.05;;
59024;SDS011;44806;48.008;13.666;2023-04-29T12:04:43;120.43;;;53.22;;
59024;SDS011;44806;48.008;13.666;2023-04-29T12:07:11;150.02;;;87.78;;
59024;SDS011;44806;48.008;13.666;2023-04-29T12:09:41;134.88;;;62.22;;
59024;SDS011;44806;48.008;13.666;2023-04-29T12:12:08;145.73;;;72.00;;
59024;SDS011;44806;48.008;13.666;2023-04-29T12:14:37;108.93;;;73.60;;
59024;SDS011;44806;48.008;13.666;2023-04-29T12:17:05;122.40;;;66.50;;
59024;SDS011;44806;48.008;13.666;2023-04-29T12:19:33;120.25;;;77.13;;
59024;SDS011;44806;48.008;13.666;2023-04-29T15:34:25;131.00;;;58.83;;
59024;SDS011;44806;48.008;13.666;2023-04-29T15:36:51;104.25;;;51.97;;
59024;SDS011;44806;48.008;13.666;2023-04-29T15:39:20;139.63;;;59.17;;
59024;SDS011;44806;48.008;13.666;2023-04-29T15:41:47;42.05;;;25.00;;
59024;SDS011;44806;48.008;13.666;2023-04-29T15:44:14;136.23;;;77.78;;
59024;SDS011;44806;48.008;13.666;2023-04-29T15:46:41;90.47;;;56.90;;
59024;SDS011;44806;48.008;13.666;2023-04-29T15:49:07;141.10;;;88.95;;
59024;SDS011;44806;48.008;13.666;2023-04-29T15:51:36;116.03;;;55.25;;
59024;SDS011;44806;48.008;13.666;2023-04-29T15:54:03;108.65;;;56.58;;
59024;SDS011;44806;48.008;13.666;2023-04-29T15:56:31;56.08;;;30.77;;
59024;SDS011;44806;48.008;13.666;2023-04-29T15:58:58;46.15;;;27.17;;
59024;SDS011;44806;48.008;13.666;2023-04-29T16:01:25;32.03;;;22.23;;
59024;SDS011;44806;48.008;13.666;2023-04-29T16:03:52;69.00;;;38.25;;
59024;SDS011;44806;48.008;13.666;2023-04-29T16:06:19;91.82;;;36.70;;
59024;SDS011;44806;48.008;13.666;2023-04-29T16:08:47;70.07;;;37.65;;
59024;SDS011;44806;48.008;13.666;2023-04-29T16:11:15;107.15;;;44.63;;
59024;SDS011;44806;48.008;13.666;2023-04-29T16:13:42;56.00;;;33.35;;
59024;SDS011;44806;48.008;13.666;2023-04-29T16:16:08;58.25;;;25.15;;
59024;SDS011;44806;48.008;13.666;2023-04-29T16:18:36;35.17;;;19.83;;
59024;SDS011;44806;48.008;13.666;2023-04-29T16:21:03;42.00;;;25.05;;
59024;SDS011;44806;48.008;13.666;2023-04-29T16:23:30;66.22;;;34.67;;
59024;SDS011;44806;48.008;13.666;2023-04-29T16:25:59;51.90;;;31.92;;
59024;SDS011;44806;48.008;13.666;2023-04-29T16:28:27;140.35;;;59.30;;
59024;SDS011;44806;48.008;13.666;2023-04-29T16:30:54;129.13;;;65.35;;
59024;SDS011;44806;48.008;13.666;2023-04-29T16:33:21;51.30;;;31.60;;
59024;SDS011;44806;48.008;13.666;2023-04-29T16:35:48;83.50;;;50.63;;
59024;SDS011;44806;48.008;13.666;2023-04-29T16:38:15;82.85;;;42.25;;
59024;SDS011;44806;48.008;13.666;2023-04-29T16:40:42;63.55;;;34.28;;
59024;SDS011;44806;48.008;13.666;2023-04-29T16:43:11;87.47;;;46.63;;
59024;SDS011;44806;48.008;13.666;2023-04-29T16:45:39;127.55;;;60.83;;
59024;SDS011;44806;48.008;13.666;2023-04-29T16:48:06;68.13;;;41.28;;
59024;SDS011;44806;48.008;13.666;2023-04-29T16:50:34;102.30;;;53.95;;
59024;SDS011;44806;48.008;13.666;2023-04-29T16:53:01;62.10;;;38.80;;
59024;SDS011;44806;48.008;13.666;2023-04-29T16:55:28;75.65;;;30.70;;
59024;SDS011;44806;48.008;13.666;2023-04-29T16:57:56;147.55;;;65.72;;
59024;SDS011;44806;48.008;13.666;2023-04-29T17:00:24;33.55;;;18.73;;
59024;SDS011;44806;48.008;13.666;2023-04-29T17:02:52;51.33;;;27.88;;
59024;SDS011;44806;48.008;13.666;2023-04-29T17:05:22;135.98;;;53.53;;
59024;SDS011;44806;48.008;13.666;2023-04-29T17:07:51;69.40;;;35.40;;
59024;SDS011;44806;48.008;13.666;2023-04-29T17:10:18;123.60;;;52.00;;
59024;SDS011;44806;48.008;13.666;2023-04-29T17:12:46;99.50;;;44.97;;
59024;SDS011;44806;48.008;13.666;2023-04-29T17:15:13;38.00;;;20.33;;
59024;SDS011;44806;48.008;13.666;2023-04-29T17:17:41;54.17;;;27.67;;
59024;SDS011;44806;48.008;13.666;2023-04-29T17:20:09;106.82;;;56.05;;
59024;SDS011;44806;48.008;13.666;2023-04-29T17:22:37;43.53;;;26.88;;
59024;SDS011;44806;48.008;13.666;2023-04-29T17:25:05;71.32;;;33.58;;
59024;SDS011;44806;48.008;13.666;2023-04-29T17:27:33;62.45;;;32.22;;